createdAt,value
2022-10-08T00:01:07.747Z,11.08
2022-10-08T00:06:37.022Z,11.00
2022-10-08T00:11:59.459Z,11.40
2022-10-08T00:17:21.603Z,11.47
2022-10-08T00:22:44.190Z,12.75
2022-10-08T00:28:07.518Z,10.50
2022-10-08T00:33:29.696Z,11.45
2022-10-08T00:38:52.674Z,12.35
2022-10-08T00:44:35.504Z,12.47
2022-10-08T00:50:00.864Z,13.80
2022-10-08T00:55:28.468Z,11.45
2022-10-08T01:00:50.932Z,13.10
2022-10-08T01:06:39.215Z,13.70
2022-10-08T01:12:15.722Z,13.23
2022-10-08T01:18:11.076Z,12.87
2022-10-08T01:24:04.020Z,14.57
2022-10-08T01:29:37.057Z,14.33
2022-10-08T01:35:14.090Z,16.37
2022-10-08T01:40:41.512Z,16.73
2022-10-08T01:46:14.545Z,15.90
2022-10-08T01:51:43.521Z,16.30
2022-10-08T01:57:08.616Z,15.40
2022-10-08T02:02:37.031Z,16.20
2022-10-08T02:08:01.100Z,16.10
2022-10-08T02:13:23.767Z,17.53
2022-10-08T02:19:00.388Z,15.77
2022-10-08T02:24:42.179Z,15.03
2022-10-08T02:30:16.852Z,15.60
2022-10-08T02:35:46.391Z,17.17
2022-10-08T02:41:11.902Z,17.47
2022-10-08T02:46:37.792Z,17.43
2022-10-08T02:52:02.916Z,17.90
2022-10-08T02:57:33.207Z,18.33
2022-10-08T03:03:08.631Z,17.90
2022-10-08T03:08:34.712Z,18.10
2022-10-08T03:14:01.384Z,17.53
2022-10-08T03:19:26.202Z,17.05
2022-10-08T03:24:48.906Z,16.42
2022-10-08T03:30:11.242Z,17.40
2022-10-08T03:35:33.485Z,17.67
2022-10-08T03:41:02.914Z,17.90
2022-10-08T03:46:26.045Z,17.77
2022-10-08T03:51:48.702Z,18.62
2022-10-08T03:57:10.833Z,18.45
2022-10-08T04:02:35.590Z,17.53
2022-10-08T04:07:58.262Z,17.57
2022-10-08T04:13:21.172Z,17.03
2022-10-08T04:18:44.356Z,16.63
2022-10-08T04:24:06.877Z,16.97
2022-10-08T04:29:29.083Z,18.37
2022-10-08T04:34:51.245Z,19.32
2022-10-08T04:40:14.163Z,17.80
2022-10-08T04:45:36.471Z,17.27
2022-10-08T04:51:10.030Z,19.50
2022-10-08T04:56:37.006Z,19.03
2022-10-08T05:02:01.019Z,18.63
2022-10-08T05:07:24.707Z,19.87
2022-10-08T05:12:47.321Z,19.13
2022-10-08T05:18:09.778Z,19.10
2022-10-08T05:23:32.008Z,19.00
2022-10-08T05:28:54.702Z,18.00
2022-10-08T05:34:21.169Z,17.62
2022-10-08T05:39:43.909Z,18.50
2022-10-08T05:45:06.118Z,18.47
2022-10-08T05:50:28.909Z,19.27
2022-10-08T05:55:51.069Z,18.98
2022-10-08T06:01:25.649Z,16.93
2022-10-08T06:06:50.352Z,18.77
2022-10-08T06:12:14.345Z,18.67
2022-10-08T06:17:36.509Z,18.97
2022-10-08T06:22:58.790Z,19.70
2022-10-08T06:28:21.167Z,19.40
2022-10-08T06:33:43.558Z,17.87
2022-10-08T06:39:12.862Z,18.43
2022-10-08T06:44:35.034Z,19.43
2022-10-08T06:49:57.206Z,18.23
2022-10-08T06:55:19.705Z,18.00
2022-10-08T07:00:42.587Z,18.25
2022-10-08T07:06:08.654Z,19.05
2022-10-08T07:11:34.085Z,17.67
2022-10-08T07:16:56.550Z,18.40
2022-10-08T07:22:19.024Z,17.83
2022-10-08T07:27:44.806Z,17.73
2022-10-08T07:33:06.858Z,17.50
2022-10-08T07:38:32.781Z,17.70
2022-10-08T07:44:00.118Z,27.60
2022-10-08T07:49:23.832Z,17.60
2022-10-08T07:54:46.678Z,16.03
2022-10-08T08:00:08.823Z,16.27
2022-10-08T08:05:30.991Z,18.83
2022-10-08T08:10:53.529Z,18.40
2022-10-08T08:16:29.639Z,18.57
2022-10-08T08:21:57.189Z,18.85
2022-10-08T08:27:19.842Z,19.77
2022-10-08T08:32:41.970Z,18.73
2022-10-08T08:38:04.125Z,15.30
2022-10-08T08:43:26.441Z,14.63
2022-10-08T08:48:52.153Z,13.83
2022-10-08T08:54:15.135Z,13.47
2022-10-08T08:59:50.822Z,12.88
2022-10-08T09:05:19.672Z,13.00
2022-10-08T09:11:03.948Z,13.47
2022-10-08T09:16:28.726Z,12.60
2022-10-08T09:21:52.186Z,13.15
2022-10-08T09:27:16.156Z,13.53
2022-10-08T09:32:39.488Z,12.27
2022-10-08T09:38:06.148Z,11.73
2022-10-08T09:43:33.901Z,11.73
2022-10-08T09:48:56.306Z,11.50
2022-10-08T09:54:19.511Z,11.20
2022-10-08T09:59:46.618Z,10.45
2022-10-08T10:05:13.250Z,9.53
2022-10-08T10:10:55.368Z,8.90
2022-10-08T10:16:28.662Z,8.95
2022-10-08T10:22:30.428Z,9.38
2022-10-08T10:28:09.518Z,9.83
2022-10-08T10:33:41.495Z,8.67
2022-10-08T10:39:25.657Z,7.42
2022-10-08T10:45:07.526Z,7.55
2022-10-08T10:50:47.605Z,8.05
2022-10-08T11:01:51.709Z,6.53
2022-10-08T11:07:25.213Z,6.47
2022-10-08T11:13:00.643Z,6.20
2022-10-08T11:18:55.977Z,7.67
2022-10-08T11:24:31.488Z,7.08
2022-10-08T11:30:04.101Z,6.23
2022-10-08T11:35:50.314Z,6.58
2022-10-08T11:41:41.325Z,6.62
2022-10-08T11:47:22.323Z,5.92
2022-10-08T11:52:46.919Z,7.80
2022-10-08T11:58:22.236Z,6.70
2022-10-08T12:03:51.154Z,6.70
2022-10-08T12:09:17.637Z,5.72
2022-10-08T12:14:44.741Z,5.67
2022-10-08T12:20:26.568Z,5.72
2022-10-08T12:26:09.350Z,4.62
2022-10-08T12:31:40.497Z,4.72
2022-10-08T12:37:13.516Z,4.72
2022-10-08T12:42:44.338Z,4.60
2022-10-08T12:48:11.358Z,4.65
2022-10-08T12:53:35.535Z,4.58
2022-10-08T12:58:58.925Z,5.15
2022-10-08T13:04:35.959Z,4.30
2022-10-08T13:10:02.913Z,4.33
2022-10-08T13:15:33.945Z,4.42
2022-10-08T13:21:10.678Z,4.53
2022-10-08T13:26:59.524Z,4.10
2022-10-08T13:32:39.143Z,3.40
2022-10-08T13:38:02.870Z,3.37
2022-10-08T13:43:25.624Z,3.17
2022-10-08T13:48:51.132Z,3.25
2022-10-08T13:54:15.180Z,3.25
2022-10-08T13:59:38.343Z,3.17
2022-10-08T14:05:00.569Z,3.70
2022-10-08T14:10:24.914Z,3.35
2022-10-08T14:15:47.054Z,2.85
2022-10-08T14:21:10.704Z,3.33
2022-10-08T14:26:33.335Z,3.08
2022-10-08T14:31:55.875Z,3.12
2022-10-08T14:37:18.726Z,3.25
2022-10-08T14:42:40.857Z,3.30
2022-10-08T14:48:03.022Z,3.50
2022-10-08T14:53:25.164Z,3.15
2022-10-08T14:58:48.117Z,2.80
2022-10-08T15:04:10.811Z,2.85
2022-10-08T15:09:34.853Z,2.62
2022-10-08T15:14:58.253Z,3.20
2022-10-08T15:20:20.546Z,3.08
2022-10-08T15:25:44.020Z,3.30
2022-10-08T15:31:11.638Z,3.15
2022-10-08T15:36:49.829Z,3.50
2022-10-08T15:42:12.707Z,3.03
2022-10-08T15:47:35.772Z,3.43
2022-10-08T15:52:58.326Z,2.93
2022-10-08T15:58:45.813Z,3.30
2022-10-08T16:03:49.816Z,3.27
2022-10-08T16:09:12.637Z,3.40
2022-10-08T16:14:37.342Z,3.87
2022-10-08T16:19:59.477Z,3.57
2022-10-08T16:25:21.775Z,3.10
2022-10-08T16:30:43.965Z,4.07
2022-10-08T16:36:10.729Z,3.97
2022-10-08T16:41:39.419Z,4.20
2022-10-08T16:47:04.090Z,3.33
2022-10-08T16:52:26.224Z,2.70
2022-10-08T16:57:51.581Z,2.90
2022-10-08T17:03:12.520Z,3.03
2022-10-08T17:08:34.637Z,2.85
2022-10-08T17:14:03.754Z,2.40
2022-10-08T17:19:26.085Z,2.83
2022-10-08T17:24:48.249Z,3.92
2022-10-08T17:30:10.640Z,2.90
2022-10-08T17:35:32.845Z,3.07
2022-10-08T17:40:54.960Z,3.33
2022-10-08T17:46:21.208Z,3.27
2022-10-08T17:51:45.953Z,4.13
2022-10-08T17:57:09.067Z,4.77
2022-10-08T18:02:31.253Z,4.58
2022-10-08T18:07:53.436Z,3.80
2022-10-08T18:13:16.041Z,2.90
2022-10-08T18:18:38.712Z,2.80
2022-10-08T18:24:01.611Z,3.27
2022-10-08T18:29:26.649Z,3.55
2022-10-08T18:34:48.964Z,3.70
2022-10-08T18:40:11.275Z,3.70
2022-10-08T18:45:33.485Z,4.50
2022-10-08T18:50:55.681Z,4.60
2022-10-08T18:56:20.760Z,4.43
2022-10-08T19:01:46.878Z,4.60
2022-10-08T19:07:13.105Z,4.58
2022-10-08T19:12:35.247Z,4.43
2022-10-08T19:17:57.502Z,5.37
2022-10-08T19:23:20.187Z,5.43
2022-10-08T19:28:43.377Z,4.80
2022-10-08T19:34:14.830Z,4.77
2022-10-08T19:39:44.025Z,5.33
2022-10-08T19:45:04.674Z,4.47
2022-10-08T19:50:27.181Z,4.87
2022-10-08T19:55:49.415Z,4.60
2022-10-08T20:01:28.414Z,4.13
2022-10-08T20:06:53.195Z,4.80
2022-10-08T20:12:15.363Z,5.03
2022-10-08T20:17:37.541Z,4.83
2022-10-08T20:22:59.687Z,5.70
2022-10-08T20:28:22.388Z,5.67
2022-10-08T20:33:45.183Z,5.63
2022-10-08T20:39:08.997Z,5.35
2022-10-08T20:44:31.232Z,5.50
2022-10-08T20:49:53.390Z,5.60
2022-10-08T20:55:15.743Z,4.93
2022-10-08T21:00:38.577Z,5.80
2022-10-08T21:06:00.824Z,5.77
2022-10-08T21:11:29.748Z,5.95
2022-10-08T21:16:54.612Z,5.40
2022-10-08T21:22:16.751Z,4.90
2022-10-08T21:27:38.906Z,5.30
2022-10-08T21:33:01.050Z,5.80
2022-10-08T21:38:23.697Z,5.22
2022-10-08T21:43:48.216Z,4.90
2022-10-08T21:49:21.259Z,4.27
2022-10-08T21:54:43.396Z,3.87
2022-10-08T22:00:07.157Z,3.37
2022-10-08T22:05:30.032Z,3.43
2022-10-08T22:10:54.084Z,3.23
2022-10-08T22:16:18.923Z,3.60
2022-10-08T22:21:41.749Z,4.63
2022-10-08T22:27:05.158Z,4.28
2022-10-08T22:32:27.319Z,3.67
2022-10-08T22:37:49.442Z,3.05
2022-10-08T22:43:11.603Z,3.40
2022-10-08T22:48:34.352Z,3.47
2022-10-08T22:53:57.493Z,3.07
2022-10-08T22:59:19.808Z,2.77
2022-10-08T23:04:42.092Z,2.40
2022-10-08T23:10:04.233Z,2.62
2022-10-08T23:15:27.882Z,3.08
2022-10-08T23:20:50.001Z,2.80
2022-10-08T23:26:17.923Z,2.93
2022-10-08T23:31:42.775Z,2.77
2022-10-08T23:37:05.475Z,2.83
2022-10-08T23:42:27.699Z,2.80
2022-10-08T23:47:49.853Z,2.10
2022-10-08T23:53:11.981Z,3.00
2022-10-08T23:58:34.691Z,3.10
